Forest View, Illinois
Current Conditions -  °F | °C
As of 2:53 AM on Saturday 22 Nov 2014 (Local Time) from KMDW Reporting Station
Haze Haze  
Wind Chill: 25°   Ceiling: 1100
Heat Index: 34°   Visibility: 3mi
Dew Point: 29°   Wind: 13mph
Humidity: 82%   Direction: 210°SSW
Pressure: 30.12"   Gusts: NA
Location:  41.789°N, 87.7699°W
Report Text: KMDW 220853Z 21011KT 3SM BR OVC011 01/M02 A3012 RMK AO2 SLP210 60000 T00111017 56020
Loading
Personal Weather Stations






























Interactive Weather Map New forecast layout! Learn more

10-Day Weather Forecast

Advertisements
Track Severe Weather on mobile